sensor_id;sensor_type;location;lat;lon;timestamp;P1;durP1;ratioP1;P2;durP2;ratioP2
13560;SDS011;6852;51.686;5.314;2022-09-29T00:00:15;6.17;;;4.13;;
13560;SDS011;6852;51.686;5.314;2022-09-29T00:02:42;6.07;;;4.30;;
13560;SDS011;6852;51.686;5.314;2022-09-29T00:05:08;5.53;;;4.63;;
13560;SDS011;6852;51.686;5.314;2022-09-29T00:07:35;5.13;;;4.30;;
13560;SDS011;6852;51.686;5.314;2022-09-29T00:10:02;6.03;;;5.17;;
13560;SDS011;6852;51.686;5.314;2022-09-29T00:12:30;5.17;;;4.57;;
13560;SDS011;6852;51.686;5.314;2022-09-29T00:14:57;5.80;;;5.20;;
13560;SDS011;6852;51.686;5.314;2022-09-29T00:17:23;5.90;;;4.83;;
13560;SDS011;6852;51.686;5.314;2022-09-29T00:19:50;4.93;;;4.37;;
13560;SDS011;6852;51.686;5.314;2022-09-29T00:22:17;6.03;;;4.37;;
13560;SDS011;6852;51.686;5.314;2022-09-29T00:24:45;5.83;;;4.90;;
13560;SDS011;6852;51.686;5.314;2022-09-29T00:27:15;6.17;;;4.57;;
13560;SDS011;6852;51.686;5.314;2022-09-29T00:29:46;7.33;;;4.60;;
13560;SDS011;6852;51.686;5.314;2022-09-29T00:32:13;7.00;;;5.00;;
13560;SDS011;6852;51.686;5.314;2022-09-29T00:34:39;8.40;;;4.67;;
13560;SDS011;6852;51.686;5.314;2022-09-29T00:37:06;7.10;;;5.00;;
13560;SDS011;6852;51.686;5.314;2022-09-29T00:39:33;6.10;;;5.17;;
13560;SDS011;6852;51.686;5.314;2022-09-29T00:42:00;5.57;;;5.07;;
13560;SDS011;6852;51.686;5.314;2022-09-29T00:47:46;7.37;;;5.23;;
13560;SDS011;6852;51.686;5.314;2022-09-29T00:50:45;5.07;;;4.57;;
13560;SDS011;6852;51.686;5.314;2022-09-29T00:53:15;6.40;;;4.93;;
13560;SDS011;6852;51.686;5.314;2022-09-29T00:58:26;6.00;;;5.07;;
13560;SDS011;6852;51.686;5.314;2022-09-29T01:00:54;5.93;;;5.30;;
13560;SDS011;6852;51.686;5.314;2022-09-29T01:03:21;7.07;;;4.73;;
13560;SDS011;6852;51.686;5.314;2022-09-29T01:05:53;8.63;;;5.80;;
13560;SDS011;6852;51.686;5.314;2022-09-29T01:08:30;6.47;;;4.70;;
13560;SDS011;6852;51.686;5.314;2022-09-29T01:11:05;7.17;;;5.23;;
13560;SDS011;6852;51.686;5.314;2022-09-29T01:13:32;9.67;;;5.77;;
13560;SDS011;6852;51.686;5.314;2022-09-29T01:15:59;8.67;;;5.33;;
13560;SDS011;6852;51.686;5.314;2022-09-29T01:18:26;6.40;;;4.90;;
13560;SDS011;6852;51.686;5.314;2022-09-29T01:21:12;8.27;;;5.43;;
13560;SDS011;6852;51.686;5.314;2022-09-29T01:31:59;6.13;;;5.53;;
13560;SDS011;6852;51.686;5.314;2022-09-29T01:38:02;9.57;;;5.33;;
13560;SDS011;6852;51.686;5.314;2022-09-29T01:40:46;5.90;;;5.30;;
13560;SDS011;6852;51.686;5.314;2022-09-29T01:43:47;6.43;;;5.43;;
13560;SDS011;6852;51.686;5.314;2022-09-29T01:46:22;6.37;;;5.43;;
13560;SDS011;6852;51.686;5.314;2022-09-29T01:48:54;8.93;;;5.37;;
13560;SDS011;6852;51.686;5.314;2022-09-29T01:51:24;6.70;;;5.40;;
13560;SDS011;6852;51.686;5.314;2022-09-29T01:54:02;6.47;;;5.70;;
13560;SDS011;6852;51.686;5.314;2022-09-29T01:56:46;5.70;;;5.10;;
13560;SDS011;6852;51.686;5.314;2022-09-29T01:59:30;5.47;;;4.83;;
13560;SDS011;6852;51.686;5.314;2022-09-29T02:02:18;6.37;;;5.50;;
13560;SDS011;6852;51.686;5.314;2022-09-29T02:04:56;6.50;;;5.83;;
13560;SDS011;6852;51.686;5.314;2022-09-29T02:07:31;6.97;;;5.60;;
13560;SDS011;6852;51.686;5.314;2022-09-29T02:10:15;7.17;;;5.33;;
13560;SDS011;6852;51.686;5.314;2022-09-29T02:12:52;7.90;;;4.70;;
13560;SDS011;6852;51.686;5.314;2022-09-29T02:15:23;6.13;;;5.50;;
13560;SDS011;6852;51.686;5.314;2022-09-29T02:17:53;7.63;;;5.60;;
13560;SDS011;6852;51.686;5.314;2022-09-29T02:20:24;7.17;;;5.70;;
13560;SDS011;6852;51.686;5.314;2022-09-29T02:22:51;8.37;;;5.23;;
13560;SDS011;6852;51.686;5.314;2022-09-29T02:25:18;6.23;;;5.10;;
13560;SDS011;6852;51.686;5.314;2022-09-29T02:27:46;6.97;;;5.30;;
13560;SDS011;6852;51.686;5.314;2022-09-29T02:30:16;8.47;;;5.60;;
13560;SDS011;6852;51.686;5.314;2022-09-29T02:32:45;6.63;;;5.27;;
13560;SDS011;6852;51.686;5.314;2022-09-29T02:35:12;7.70;;;5.30;;
13560;SDS011;6852;51.686;5.314;2022-09-29T02:37:50;7.73;;;5.73;;
13560;SDS011;6852;51.686;5.314;2022-09-29T02:45:56;6.23;;;5.00;;
13560;SDS011;6852;51.686;5.314;2022-09-29T02:51:30;8.13;;;5.40;;
13560;SDS011;6852;51.686;5.314;2022-09-29T02:54:13;7.00;;;5.47;;
13560;SDS011;6852;51.686;5.314;2022-09-29T02:57:19;10.30;;;5.57;;
13560;SDS011;6852;51.686;5.314;2022-09-29T03:00:05;8.70;;;5.80;;
13560;SDS011;6852;51.686;5.314;2022-09-29T03:02:36;6.33;;;5.40;;
13560;SDS011;6852;51.686;5.314;2022-09-29T03:05:05;7.47;;;5.47;;
13560;SDS011;6852;51.686;5.314;2022-09-29T03:07:37;8.03;;;5.43;;
13560;SDS011;6852;51.686;5.314;2022-09-29T03:10:05;6.10;;;5.27;;
13560;SDS011;6852;51.686;5.314;2022-09-29T03:12:33;5.40;;;4.90;;
13560;SDS011;6852;51.686;5.314;2022-09-29T03:15:00;6.03;;;5.27;;
13560;SDS011;6852;51.686;5.314;2022-09-29T03:17:27;6.00;;;5.40;;
13560;SDS011;6852;51.686;5.314;2022-09-29T03:19:54;7.47;;;5.27;;
13560;SDS011;6852;51.686;5.314;2022-09-29T03:22:21;7.17;;;5.50;;
13560;SDS011;6852;51.686;5.314;2022-09-29T03:24:48;6.83;;;6.03;;
13560;SDS011;6852;51.686;5.314;2022-09-29T03:27:15;6.20;;;5.60;;
13560;SDS011;6852;51.686;5.314;2022-09-29T03:29:42;7.40;;;5.30;;
13560;SDS011;6852;51.686;5.314;2022-09-29T03:32:09;6.87;;;5.33;;
13560;SDS011;6852;51.686;5.314;2022-09-29T03:34:36;6.77;;;5.30;;
13560;SDS011;6852;51.686;5.314;2022-09-29T03:37:02;7.27;;;6.10;;
13560;SDS011;6852;51.686;5.314;2022-09-29T03:39:30;7.13;;;5.70;;
13560;SDS011;6852;51.686;5.314;2022-09-29T03:41:57;7.03;;;5.50;;
13560;SDS011;6852;51.686;5.314;2022-09-29T03:44:23;9.97;;;5.37;;
13560;SDS011;6852;51.686;5.314;2022-09-29T03:46:50;6.13;;;5.17;;
13560;SDS011;6852;51.686;5.314;2022-09-29T03:49:17;9.37;;;5.53;;
13560;SDS011;6852;51.686;5.314;2022-09-29T03:51:44;7.97;;;5.73;;
13560;SDS011;6852;51.686;5.314;2022-09-29T03:54:11;9.03;;;6.00;;
13560;SDS011;6852;51.686;5.314;2022-09-29T03:56:38;7.10;;;5.70;;
13560;SDS011;6852;51.686;5.314;2022-09-29T03:59:05;6.60;;;5.93;;
13560;SDS011;6852;51.686;5.314;2022-09-29T04:01:34;7.17;;;5.63;;
13560;SDS011;6852;51.686;5.314;2022-09-29T04:04:03;8.73;;;5.83;;
13560;SDS011;6852;51.686;5.314;2022-09-29T04:06:31;8.60;;;6.30;;
13560;SDS011;6852;51.686;5.314;2022-09-29T04:08:59;9.57;;;5.83;;
13560;SDS011;6852;51.686;5.314;2022-09-29T04:11:25;8.47;;;5.77;;
13560;SDS011;6852;51.686;5.314;2022-09-29T04:13:53;5.97;;;5.17;;
13560;SDS011;6852;51.686;5.314;2022-09-29T04:16:20;6.63;;;5.43;;
13560;SDS011;6852;51.686;5.314;2022-09-29T04:18:46;8.73;;;6.10;;
13560;SDS011;6852;51.686;5.314;2022-09-29T04:21:13;8.13;;;5.60;;
13560;SDS011;6852;51.686;5.314;2022-09-29T04:23:41;6.90;;;6.20;;
13560;SDS011;6852;51.686;5.314;2022-09-29T04:26:08;6.50;;;5.73;;
13560;SDS011;6852;51.686;5.314;2022-09-29T04:28:36;8.80;;;6.33;;
13560;SDS011;6852;51.686;5.314;2022-09-29T04:31:04;7.43;;;6.60;;
13560;SDS011;6852;51.686;5.314;2022-09-29T04:33:31;8.07;;;6.50;;
13560;SDS011;6852;51.686;5.314;2022-09-29T04:35:58;7.87;;;5.63;;
13560;SDS011;6852;51.686;5.314;2022-09-29T04:38:25;10.63;;;6.37;;
13560;SDS011;6852;51.686;5.314;2022-09-29T04:40:52;7.77;;;5.97;;
13560;SDS011;6852;51.686;5.314;2022-09-29T04:43:19;6.20;;;5.60;;
13560;SDS011;6852;51.686;5.314;2022-09-29T04:45:46;6.90;;;6.03;;
13560;SDS011;6852;51.686;5.314;2022-09-29T04:48:13;11.47;;;6.07;;
13560;SDS011;6852;51.686;5.314;2022-09-29T04:50:39;9.10;;;6.40;;
13560;SDS011;6852;51.686;5.314;2022-09-29T04:53:08;6.73;;;5.47;;
13560;SDS011;6852;51.686;5.314;2022-09-29T04:55:36;6.70;;;5.93;;
13560;SDS011;6852;51.686;5.314;2022-09-29T04:58:03;6.77;;;5.87;;
13560;SDS011;6852;51.686;5.314;2022-09-29T05:00:30;6.80;;;6.10;;
13560;SDS011;6852;51.686;5.314;2022-09-29T05:02:58;9.30;;;6.10;;
13560;SDS011;6852;51.686;5.314;2022-09-29T05:05:25;7.33;;;6.13;;
13560;SDS011;6852;51.686;5.314;2022-09-29T05:07:52;6.90;;;6.20;;
13560;SDS011;6852;51.686;5.314;2022-09-29T05:10:19;6.87;;;5.60;;
13560;SDS011;6852;51.686;5.314;2022-09-29T05:12:47;7.47;;;5.33;;
13560;SDS011;6852;51.686;5.314;2022-09-29T05:15:15;7.00;;;5.63;;
13560;SDS011;6852;51.686;5.314;2022-09-29T05:17:50;7.73;;;5.93;;
13560;SDS011;6852;51.686;5.314;2022-09-29T05:20:17;7.70;;;5.60;;
13560;SDS011;6852;51.686;5.314;2022-09-29T05:22:44;7.90;;;6.13;;
13560;SDS011;6852;51.686;5.314;2022-09-29T05:25:11;10.03;;;6.27;;
13560;SDS011;6852;51.686;5.314;2022-09-29T05:27:38;9.53;;;7.03;;
13560;SDS011;6852;51.686;5.314;2022-09-29T05:30:05;10.70;;;6.00;;
13560;SDS011;6852;51.686;5.314;2022-09-29T05:32:32;8.30;;;6.50;;
13560;SDS011;6852;51.686;5.314;2022-09-29T05:34:58;7.07;;;6.37;;
13560;SDS011;6852;51.686;5.314;2022-09-29T05:37:26;6.23;;;5.60;;
13560;SDS011;6852;51.686;5.314;2022-09-29T05:39:52;6.37;;;5.63;;
13560;SDS011;6852;51.686;5.314;2022-09-29T05:42:19;7.33;;;6.57;;
13560;SDS011;6852;51.686;5.314;2022-09-29T05:44:46;7.23;;;5.77;;
13560;SDS011;6852;51.686;5.314;2022-09-29T05:47:12;8.07;;;6.60;;
13560;SDS011;6852;51.686;5.314;2022-09-29T05:49:39;6.93;;;6.23;;
13560;SDS011;6852;51.686;5.314;2022-09-29T05:52:07;8.13;;;6.40;;
13560;SDS011;6852;51.686;5.314;2022-09-29T05:54:34;8.50;;;6.80;;
13560;SDS011;6852;51.686;5.314;2022-09-29T05:57:00;7.33;;;5.87;;
13560;SDS011;6852;51.686;5.314;2022-09-29T05:59:27;7.40;;;6.30;;
13560;SDS011;6852;51.686;5.314;2022-09-29T06:01:54;7.50;;;6.03;;
13560;SDS011;6852;51.686;5.314;2022-09-29T06:04:21;8.37;;;6.90;;
13560;SDS011;6852;51.686;5.314;2022-09-29T06:06:48;9.87;;;6.37;;
13560;SDS011;6852;51.686;5.314;2022-09-29T06:09:14;7.40;;;6.57;;
13560;SDS011;6852;51.686;5.314;2022-09-29T06:11:41;8.10;;;6.57;;
13560;SDS011;6852;51.686;5.314;2022-09-29T06:14:08;8.33;;;6.43;;
13560;SDS011;6852;51.686;5.314;2022-09-29T06:16:35;8.90;;;6.77;;
13560;SDS011;6852;51.686;5.314;2022-09-29T06:19:02;7.77;;;6.93;;
13560;SDS011;6852;51.686;5.314;2022-09-29T06:21:30;11.47;;;6.83;;
13560;SDS011;6852;51.686;5.314;2022-09-29T06:23:59;8.10;;;6.63;;
13560;SDS011;6852;51.686;5.314;2022-09-29T06:26:26;9.20;;;6.90;;
13560;SDS011;6852;51.686;5.314;2022-09-29T06:28:54;9.63;;;6.23;;
13560;SDS011;6852;51.686;5.314;2022-09-29T06:31:22;9.03;;;6.67;;
13560;SDS011;6852;51.686;5.314;2022-09-29T06:33:51;12.20;;;7.13;;
13560;SDS011;6852;51.686;5.314;2022-09-29T06:36:19;11.50;;;6.87;;
13560;SDS011;6852;51.686;5.314;2022-09-29T06:39:09;8.20;;;6.77;;
13560;SDS011;6852;51.686;5.314;2022-09-29T06:41:37;9.97;;;6.80;;
13560;SDS011;6852;51.686;5.314;2022-09-29T06:44:03;9.60;;;7.20;;
13560;SDS011;6852;51.686;5.314;2022-09-29T06:46:30;10.40;;;6.93;;
13560;SDS011;6852;51.686;5.314;2022-09-29T06:48:57;9.60;;;7.50;;
13560;SDS011;6852;51.686;5.314;2022-09-29T06:51:24;10.33;;;7.30;;
13560;SDS011;6852;51.686;5.314;2022-09-29T06:54:03;9.70;;;7.50;;
13560;SDS011;6852;51.686;5.314;2022-09-29T06:56:37;9.03;;;7.63;;
13560;SDS011;6852;51.686;5.314;2022-09-29T06:59:04;11.30;;;7.57;;
13560;SDS011;6852;51.686;5.314;2022-09-29T07:01:32;8.90;;;7.47;;
13560;SDS011;6852;51.686;5.314;2022-09-29T07:03:59;11.57;;;8.03;;
13560;SDS011;6852;51.686;5.314;2022-09-29T07:06:27;9.53;;;7.93;;
13560;SDS011;6852;51.686;5.314;2022-09-29T07:08:54;9.77;;;7.93;;
13560;SDS011;6852;51.686;5.314;2022-09-29T07:11:23;11.30;;;7.43;;
13560;SDS011;6852;51.686;5.314;2022-09-29T07:13:51;8.03;;;7.20;;
13560;SDS011;6852;51.686;5.314;2022-09-29T07:16:20;11.43;;;8.10;;
13560;SDS011;6852;51.686;5.314;2022-09-29T07:18:49;10.93;;;8.50;;
13560;SDS011;6852;51.686;5.314;2022-09-29T07:21:17;8.90;;;7.93;;
13560;SDS011;6852;51.686;5.314;2022-09-29T07:23:45;11.13;;;8.57;;
13560;SDS011;6852;51.686;5.314;2022-09-29T07:26:13;10.43;;;8.67;;
13560;SDS011;6852;51.686;5.314;2022-09-29T07:28:42;10.00;;;8.40;;
13560;SDS011;6852;51.686;5.314;2022-09-29T07:31:11;10.20;;;7.97;;
13560;SDS011;6852;51.686;5.314;2022-09-29T07:33:41;9.57;;;7.73;;
13560;SDS011;6852;51.686;5.314;2022-09-29T07:36:09;10.67;;;8.30;;
13560;SDS011;6852;51.686;5.314;2022-09-29T07:38:35;10.27;;;8.57;;
13560;SDS011;6852;51.686;5.314;2022-09-29T07:41:03;10.47;;;8.13;;
13560;SDS011;6852;51.686;5.314;2022-09-29T07:43:35;11.40;;;8.60;;
13560;SDS011;6852;51.686;5.314;2022-09-29T07:46:03;11.60;;;8.37;;
13560;SDS011;6852;51.686;5.314;2022-09-29T07:48:30;10.10;;;8.47;;
13560;SDS011;6852;51.686;5.314;2022-09-29T07:50:59;12.97;;;8.57;;
13560;SDS011;6852;51.686;5.314;2022-09-29T07:53:28;10.50;;;7.90;;
13560;SDS011;6852;51.686;5.314;2022-09-29T07:56:00;12.77;;;9.13;;
13560;SDS011;6852;51.686;5.314;2022-09-29T07:58:38;10.73;;;8.53;;
13560;SDS011;6852;51.686;5.314;2022-09-29T08:01:07;10.30;;;8.33;;
13560;SDS011;6852;51.686;5.314;2022-09-29T08:03:36;11.67;;;8.70;;
13560;SDS011;6852;51.686;5.314;2022-09-29T08:06:05;10.73;;;9.03;;
13560;SDS011;6852;51.686;5.314;2022-09-29T08:08:36;10.27;;;8.50;;
13560;SDS011;6852;51.686;5.314;2022-09-29T08:11:17;10.30;;;8.30;;
13560;SDS011;6852;51.686;5.314;2022-09-29T08:13:56;11.07;;;8.43;;
13560;SDS011;6852;51.686;5.314;2022-09-29T08:16:23;11.67;;;8.23;;
13560;SDS011;6852;51.686;5.314;2022-09-29T08:18:51;10.07;;;8.57;;
13560;SDS011;6852;51.686;5.314;2022-09-29T08:21:17;11.70;;;8.30;;
13560;SDS011;6852;51.686;5.314;2022-09-29T08:23:44;9.40;;;8.30;;
13560;SDS011;6852;51.686;5.314;2022-09-29T08:26:12;9.90;;;8.53;;
13560;SDS011;6852;51.686;5.314;2022-09-29T08:28:45;9.30;;;8.20;;
13560;SDS011;6852;51.686;5.314;2022-09-29T08:31:21;9.70;;;7.90;;
13560;SDS011;6852;51.686;5.314;2022-09-29T08:33:48;12.93;;;7.87;;
13560;SDS011;6852;51.686;5.314;2022-09-29T08:36:17;11.67;;;8.53;;
13560;SDS011;6852;51.686;5.314;2022-09-29T08:38:46;12.50;;;8.50;;
13560;SDS011;6852;51.686;5.314;2022-09-29T08:43:59;8.83;;;7.93;;
13560;SDS011;6852;51.686;5.314;2022-09-29T08:52:18;9.37;;;8.13;;
13560;SDS011;6852;51.686;5.314;2022-09-29T08:54:59;10.97;;;7.47;;
13560;SDS011;6852;51.686;5.314;2022-09-29T08:57:45;9.93;;;7.93;;
13560;SDS011;6852;51.686;5.314;2022-09-29T09:00:13;10.27;;;8.17;;
13560;SDS011;6852;51.686;5.314;2022-09-29T09:08:24;12.70;;;8.63;;
13560;SDS011;6852;51.686;5.314;2022-09-29T09:13:48;8.77;;;7.87;;
13560;SDS011;6852;51.686;5.314;2022-09-29T09:16:57;11.30;;;8.10;;
13560;SDS011;6852;51.686;5.314;2022-09-29T09:19:40;12.60;;;8.50;;
13560;SDS011;6852;51.686;5.314;2022-09-29T09:25:22;10.23;;;8.40;;
13560;SDS011;6852;51.686;5.314;2022-09-29T09:30:41;11.27;;;8.67;;
13560;SDS011;6852;51.686;5.314;2022-09-29T09:33:15;10.73;;;8.10;;
13560;SDS011;6852;51.686;5.314;2022-09-29T09:35:59;9.73;;;8.07;;
13560;SDS011;6852;51.686;5.314;2022-09-29T09:38:49;12.00;;;8.37;;
13560;SDS011;6852;51.686;5.314;2022-09-29T09:41:23;11.63;;;8.60;;
13560;SDS011;6852;51.686;5.314;2022-09-29T09:43:53;10.50;;;8.07;;
13560;SDS011;6852;51.686;5.314;2022-09-29T09:54:35;11.77;;;8.80;;
13560;SDS011;6852;51.686;5.314;2022-09-29T10:02:27;8.97;;;7.50;;
13560;SDS011;6852;51.686;5.314;2022-09-29T10:04:56;8.07;;;7.20;;
13560;SDS011;6852;51.686;5.314;2022-09-29T10:07:23;9.67;;;7.00;;
13560;SDS011;6852;51.686;5.314;2022-09-29T10:09:53;11.13;;;8.00;;
13560;SDS011;6852;51.686;5.314;2022-09-29T10:12:22;7.13;;;5.50;;
13560;SDS011;6852;51.686;5.314;2022-09-29T10:15:00;8.30;;;5.90;;
13560;SDS011;6852;51.686;5.314;2022-09-29T10:17:32;7.97;;;6.80;;
13560;SDS011;6852;51.686;5.314;2022-09-29T10:20:07;7.27;;;5.20;;
13560;SDS011;6852;51.686;5.314;2022-09-29T10:22:34;7.80;;;5.27;;
13560;SDS011;6852;51.686;5.314;2022-09-29T10:27:34;6.57;;;5.97;;
13560;SDS011;6852;51.686;5.314;2022-09-29T10:30:15;7.63;;;4.97;;
13560;SDS011;6852;51.686;5.314;2022-09-29T10:33:02;9.53;;;5.47;;
13560;SDS011;6852;51.686;5.314;2022-09-29T10:35:37;8.57;;;5.87;;
13560;SDS011;6852;51.686;5.314;2022-09-29T10:38:24;6.60;;;4.93;;
13560;SDS011;6852;51.686;5.314;2022-09-29T10:40:53;8.17;;;5.67;;
13560;SDS011;6852;51.686;5.314;2022-09-29T10:43:24;7.17;;;5.20;;
13560;SDS011;6852;51.686;5.314;2022-09-29T10:45:52;5.93;;;4.73;;
13560;SDS011;6852;51.686;5.314;2022-09-29T10:48:24;8.53;;;4.93;;
13560;SDS011;6852;51.686;5.314;2022-09-29T10:50:53;7.40;;;4.97;;
13560;SDS011;6852;51.686;5.314;2022-09-29T10:53:39;5.77;;;5.13;;
13560;SDS011;6852;51.686;5.314;2022-09-29T10:58:36;5.40;;;4.90;;
13560;SDS011;6852;51.686;5.314;2022-09-29T11:01:24;6.73;;;4.97;;
13560;SDS011;6852;51.686;5.314;2022-09-29T11:03:56;7.13;;;5.37;;
13560;SDS011;6852;51.686;5.314;2022-09-29T11:09:25;5.80;;;5.23;;
13560;SDS011;6852;51.686;5.314;2022-09-29T11:11:56;7.93;;;5.13;;
13560;SDS011;6852;51.686;5.314;2022-09-29T11:17:03;6.17;;;4.90;;
13560;SDS011;6852;51.686;5.314;2022-09-29T11:20:04;5.57;;;4.90;;
13560;SDS011;6852;51.686;5.314;2022-09-29T11:39:23;5.07;;;4.00;;
13560;SDS011;6852;51.686;5.314;2022-09-29T11:42:17;5.37;;;4.80;;
13560;SDS011;6852;51.686;5.314;2022-09-29T11:45:13;7.93;;;4.50;;
13560;SDS011;6852;51.686;5.314;2022-09-29T11:50:55;5.57;;;3.77;;
13560;SDS011;6852;51.686;5.314;2022-09-29T11:53:56;5.13;;;3.87;;
13560;SDS011;6852;51.686;5.314;2022-09-29T12:02:17;4.13;;;3.73;;
13560;SDS011;6852;51.686;5.314;2022-09-29T12:04:59;5.60;;;3.23;;
13560;SDS011;6852;51.686;5.314;2022-09-29T12:18:17;3.73;;;3.23;;
13560;SDS011;6852;51.686;5.314;2022-09-29T12:20:52;4.20;;;2.90;;
13560;SDS011;6852;51.686;5.314;2022-09-29T12:23:22;3.50;;;3.13;;
13560;SDS011;6852;51.686;5.314;2022-09-29T12:25:54;5.23;;;3.53;;
13560;SDS011;6852;51.686;5.314;2022-09-29T12:28:23;3.70;;;3.30;;
13560;SDS011;6852;51.686;5.314;2022-09-29T12:31:00;5.67;;;3.00;;
13560;SDS011;6852;51.686;5.314;2022-09-29T12:33:52;3.93;;;3.17;;
13560;SDS011;6852;51.686;5.314;2022-09-29T12:36:46;4.07;;;3.00;;
13560;SDS011;6852;51.686;5.314;2022-09-29T12:39:33;3.47;;;2.83;;
13560;SDS011;6852;51.686;5.314;2022-09-29T12:42:07;4.27;;;3.27;;
13560;SDS011;6852;51.686;5.314;2022-09-29T12:44:39;3.47;;;2.93;;
13560;SDS011;6852;51.686;5.314;2022-09-29T12:47:35;3.23;;;2.90;;
13560;SDS011;6852;51.686;5.314;2022-09-29T12:50:10;3.40;;;3.10;;
13560;SDS011;6852;51.686;5.314;2022-09-29T12:52:53;4.80;;;3.23;;
13560;SDS011;6852;51.686;5.314;2022-09-29T12:58:57;3.60;;;2.90;;
13560;SDS011;6852;51.686;5.314;2022-09-29T13:01:20;2.50;;;2.30;;
13560;SDS011;6852;51.686;5.314;2022-09-29T13:06:57;3.57;;;3.07;;
13560;SDS011;6852;51.686;5.314;2022-09-29T13:09:56;3.57;;;3.27;;
13560;SDS011;6852;51.686;5.314;2022-09-29T13:18:28;3.37;;;2.73;;
13560;SDS011;6852;51.686;5.314;2022-09-29T13:21:33;3.30;;;3.00;;
13560;SDS011;6852;51.686;5.314;2022-09-29T13:27:09;3.27;;;2.30;;
13560;SDS011;6852;51.686;5.314;2022-09-29T13:32:40;5.77;;;2.57;;
13560;SDS011;6852;51.686;5.314;2022-09-29T13:35:44;3.17;;;2.73;;
13560;SDS011;6852;51.686;5.314;2022-09-29T13:38:15;4.47;;;2.67;;
13560;SDS011;6852;51.686;5.314;2022-09-29T13:59:26;3.10;;;1.80;;
13560;SDS011;6852;51.686;5.314;2022-09-29T14:01:56;2.97;;;2.20;;
13560;SDS011;6852;51.686;5.314;2022-09-29T14:12:58;3.20;;;2.23;;
13560;SDS011;6852;51.686;5.314;2022-09-29T14:15:32;3.17;;;2.17;;
13560;SDS011;6852;51.686;5.314;2022-09-29T14:18:03;2.50;;;2.30;;
13560;SDS011;6852;51.686;5.314;2022-09-29T14:20:41;2.43;;;1.90;;
13560;SDS011;6852;51.686;5.314;2022-09-29T14:29:21;2.53;;;1.70;;
13560;SDS011;6852;51.686;5.314;2022-09-29T14:31:53;3.03;;;2.17;;
13560;SDS011;6852;51.686;5.314;2022-09-29T14:34:23;3.00;;;2.20;;
13560;SDS011;6852;51.686;5.314;2022-09-29T14:36:53;2.70;;;2.40;;
13560;SDS011;6852;51.686;5.314;2022-09-29T14:39:22;3.90;;;2.07;;
13560;SDS011;6852;51.686;5.314;2022-09-29T14:41:52;4.20;;;2.63;;
13560;SDS011;6852;51.686;5.314;2022-09-29T14:46:53;2.87;;;2.43;;
13560;SDS011;6852;51.686;5.314;2022-09-29T14:49:44;2.60;;;2.30;;
13560;SDS011;6852;51.686;5.314;2022-09-29T14:53:32;2.87;;;2.30;;
13560;SDS011;6852;51.686;5.314;2022-09-29T14:59:08;2.63;;;1.90;;
13560;SDS011;6852;51.686;5.314;2022-09-29T15:04:36;3.43;;;2.30;;
13560;SDS011;6852;51.686;5.314;2022-09-29T15:07:08;3.60;;;2.80;;
13560;SDS011;6852;51.686;5.314;2022-09-29T15:09:47;5.07;;;2.50;;
13560;SDS011;6852;51.686;5.314;2022-09-29T15:12:29;4.30;;;2.43;;
13560;SDS011;6852;51.686;5.314;2022-09-29T15:14:57;2.50;;;2.30;;
13560;SDS011;6852;51.686;5.314;2022-09-29T15:24:18;3.43;;;2.77;;
13560;SDS011;6852;51.686;5.314;2022-09-29T15:26:38;4.20;;;2.70;;
13560;SDS011;6852;51.686;5.314;2022-09-29T15:29:05;2.73;;;2.30;;
13560;SDS011;6852;51.686;5.314;2022-09-29T15:31:34;2.50;;;2.13;;
13560;SDS011;6852;51.686;5.314;2022-09-29T15:34:01;2.87;;;2.53;;
13560;SDS011;6852;51.686;5.314;2022-09-29T15:36:33;2.43;;;2.20;;
13560;SDS011;6852;51.686;5.314;2022-09-29T15:39:06;2.90;;;2.70;;
13560;SDS011;6852;51.686;5.314;2022-09-29T15:41:55;2.87;;;2.40;;
13560;SDS011;6852;51.686;5.314;2022-09-29T15:44:31;4.53;;;2.60;;
13560;SDS011;6852;51.686;5.314;2022-09-29T15:46:59;3.37;;;2.73;;
13560;SDS011;6852;51.686;5.314;2022-09-29T15:49:26;2.90;;;2.70;;
13560;SDS011;6852;51.686;5.314;2022-09-29T15:52:04;4.17;;;2.30;;
13560;SDS011;6852;51.686;5.314;2022-09-29T15:54:36;4.33;;;2.80;;
13560;SDS011;6852;51.686;5.314;2022-09-29T15:57:06;2.60;;;2.40;;
13560;SDS011;6852;51.686;5.314;2022-09-29T16:00:01;4.53;;;2.90;;
13560;SDS011;6852;51.686;5.314;2022-09-29T16:02:30;5.17;;;2.57;;
13560;SDS011;6852;51.686;5.314;2022-09-29T16:05:09;2.83;;;2.53;;
13560;SDS011;6852;51.686;5.314;2022-09-29T16:07:40;2.57;;;2.37;;
13560;SDS011;6852;51.686;5.314;2022-09-29T16:10:14;2.80;;;2.37;;
13560;SDS011;6852;51.686;5.314;2022-09-29T16:12:48;2.97;;;2.60;;
13560;SDS011;6852;51.686;5.314;2022-09-29T16:15:22;7.63;;;2.80;;
13560;SDS011;6852;51.686;5.314;2022-09-29T16:18:08;3.43;;;2.90;;
13560;SDS011;6852;51.686;5.314;2022-09-29T16:20:44;3.93;;;2.53;;
13560;SDS011;6852;51.686;5.314;2022-09-29T16:28:36;3.73;;;2.73;;
13560;SDS011;6852;51.686;5.314;2022-09-29T16:31:17;3.10;;;2.80;;
13560;SDS011;6852;51.686;5.314;2022-09-29T16:33:51;4.43;;;3.30;;
13560;SDS011;6852;51.686;5.314;2022-09-29T16:36:20;3.57;;;3.10;;
13560;SDS011;6852;51.686;5.314;2022-09-29T16:38:52;5.53;;;3.23;;
13560;SDS011;6852;51.686;5.314;2022-09-29T16:41:24;3.37;;;2.80;;
13560;SDS011;6852;51.686;5.314;2022-09-29T16:46:51;5.37;;;3.60;;
13560;SDS011;6852;51.686;5.314;2022-09-29T16:49:45;6.00;;;3.57;;
13560;SDS011;6852;51.686;5.314;2022-09-29T16:52:24;5.40;;;3.17;;
13560;SDS011;6852;51.686;5.314;2022-09-29T16:54:54;4.03;;;3.30;;
13560;SDS011;6852;51.686;5.314;2022-09-29T16:57:51;5.10;;;3.53;;
13560;SDS011;6852;51.686;5.314;2022-09-29T17:00:21;5.67;;;3.40;;
13560;SDS011;6852;51.686;5.314;2022-09-29T17:02:51;4.00;;;3.60;;
13560;SDS011;6852;51.686;5.314;2022-09-29T17:05:20;4.40;;;3.43;;
13560;SDS011;6852;51.686;5.314;2022-09-29T17:07:49;3.80;;;3.50;;
13560;SDS011;6852;51.686;5.314;2022-09-29T17:10:25;6.10;;;3.93;;
13560;SDS011;6852;51.686;5.314;2022-09-29T17:12:51;7.60;;;4.20;;
13560;SDS011;6852;51.686;5.314;2022-09-29T17:15:20;5.10;;;4.50;;
13560;SDS011;6852;51.686;5.314;2022-09-29T17:17:48;8.17;;;4.77;;
13560;SDS011;6852;51.686;5.314;2022-09-29T17:20:17;4.70;;;4.27;;
13560;SDS011;6852;51.686;5.314;2022-09-29T17:22:45;6.20;;;4.90;;
13560;SDS011;6852;51.686;5.314;2022-09-29T17:25:14;7.87;;;4.40;;
13560;SDS011;6852;51.686;5.314;2022-09-29T17:27:42;7.53;;;4.77;;
13560;SDS011;6852;51.686;5.314;2022-09-29T17:30:27;7.57;;;5.17;;
13560;SDS011;6852;51.686;5.314;2022-09-29T17:32:55;7.73;;;5.07;;
13560;SDS011;6852;51.686;5.314;2022-09-29T17:35:24;6.30;;;5.30;;
13560;SDS011;6852;51.686;5.314;2022-09-29T17:37:53;6.23;;;4.97;;
13560;SDS011;6852;51.686;5.314;2022-09-29T17:40:27;6.13;;;4.80;;
13560;SDS011;6852;51.686;5.314;2022-09-29T17:42:59;7.03;;;4.70;;
13560;SDS011;6852;51.686;5.314;2022-09-29T17:45:27;7.13;;;5.30;;
13560;SDS011;6852;51.686;5.314;2022-09-29T17:48:01;7.17;;;4.93;;
13560;SDS011;6852;51.686;5.314;2022-09-29T17:50:29;6.27;;;4.83;;
13560;SDS011;6852;51.686;5.314;2022-09-29T17:53:02;6.27;;;5.23;;
13560;SDS011;6852;51.686;5.314;2022-09-29T17:55:30;6.87;;;5.17;;
13560;SDS011;6852;51.686;5.314;2022-09-29T17:57:57;6.50;;;5.23;;
13560;SDS011;6852;51.686;5.314;2022-09-29T18:00:25;6.00;;;5.27;;
13560;SDS011;6852;51.686;5.314;2022-09-29T18:02:58;6.17;;;5.47;;
13560;SDS011;6852;51.686;5.314;2022-09-29T18:05:26;9.80;;;7.50;;
13560;SDS011;6852;51.686;5.314;2022-09-29T18:07:55;12.80;;;11.43;;
13560;SDS011;6852;51.686;5.314;2022-09-29T18:10:26;17.87;;;14.07;;
13560;SDS011;6852;51.686;5.314;2022-09-29T18:13:24;17.43;;;15.10;;
13560;SDS011;6852;51.686;5.314;2022-09-29T18:15:53;11.50;;;10.30;;
13560;SDS011;6852;51.686;5.314;2022-09-29T18:18:21;11.03;;;9.30;;
13560;SDS011;6852;51.686;5.314;2022-09-29T18:20:49;11.73;;;9.10;;
13560;SDS011;6852;51.686;5.314;2022-09-29T18:23:16;12.60;;;8.23;;
13560;SDS011;6852;51.686;5.314;2022-09-29T18:25:45;7.97;;;7.10;;
13560;SDS011;6852;51.686;5.314;2022-09-29T18:28:13;8.23;;;6.73;;
13560;SDS011;6852;51.686;5.314;2022-09-29T18:30:42;6.77;;;6.07;;
13560;SDS011;6852;51.686;5.314;2022-09-29T18:33:11;5.80;;;5.27;;